• Join FlightAware (Why Join?)
  • Login
  • US Flag 
11:42PM EST


 

Airport Tracker/Info


-or-


 

Live Flight TrackerFlight Track Log ✈ CSN3560 ✈ 09-Jul-2014 ✈ ZSNJ / NKG - ZGSZ / SZX

Flight Track Log - Related Links

Times and Time Zones

All times are in EDT time to prevent confusion due to time zone crossing. See the CSN3560 flight status page for this flight to view local times or setup timezone preferences in your user account.

Time Position Orientation Groundspeed Altitude Reporting Facility
EDT Latitude Longitude Course Direction KTS MPH feet Rate Location/Type
12:01AM 31.2414 118.5579 207° Southwest  Level Estimated
12:02AM 31.1579 118.5076 207° Southwest  Level Estimated
12:03AM 31.0743 118.4573 207° Southwest  Level Estimated
12:04AM 30.9908 118.4071 207° Southwest  Level Estimated
12:05AM 30.9072 118.3570 207° Southwest  Level Estimated
12:06AM 30.8236 118.3070 207° Southwest  Level Estimated
12:07AM 30.7400 118.2570 207° Southwest  Level Estimated
12:08AM 30.6563 118.2072 207° Southwest  Level Estimated
12:09AM 30.5727 118.1574 207° Southwest  Level Estimated
12:10AM 30.4890 118.1077 207° Southwest  Level Estimated
12:11AM 30.4053 118.0582 207° Southwest  Level Estimated
12:12AM 30.3216 118.0087 207° Southwest  Level Estimated
12:13AM 30.2423 117.9619 207° Southwest  Level Estimated
12:14AM 30.1630 117.9151 207° Southwest  Level Estimated
12:15AM 30.0836 117.8684 207° Southwest  Level Estimated
12:16AM 30.0042 117.8219 207° Southwest  Level Estimated
12:17AM 29.9249 117.7753 207° Southwest  Level Estimated
12:18AM 29.8455 117.7289 207° Southwest  Level Estimated
12:19AM 29.7660 117.6825 207° Southwest  Level Estimated
12:20AM 29.6866 117.6362 207° Southwest  Level Estimated
12:21AM 29.6072 117.5900 207° Southwest  Level Estimated
12:22AM 29.5277 117.5438 207° Southwest  Level Estimated
12:23AM 29.4482 117.4978 207° Southwest  Level Estimated
12:24AM 29.3687 117.4518 207° Southwest  Level Estimated
12:25AM 29.2892 117.4058 207° Southwest  Level Estimated
12:26AM 29.2097 117.3600 207° Southwest  Level Estimated
12:27AM 29.1301 117.3142 207° Southwest  Level Estimated
12:28AM 29.0506 117.2684 207° Southwest  Level Estimated
12:29AM 28.9710 117.2228 207° Southwest  Level Estimated
12:30AM 28.8914 117.1772 207° Southwest  Level Estimated
12:31AM 28.8118 117.1317 207° Southwest  Level Estimated
12:32AM 28.7322 117.0863 207° Southwest  Level Estimated
12:33AM 28.6525 117.0409 207° Southwest  Level Estimated
12:34AM 28.5729 116.9956 207° Southwest  Level Estimated
12:35AM 28.4932 116.9504 207° Southwest  Level Estimated
12:36AM 28.4135 116.9052 207° Southwest  Level Estimated
12:37AM 28.3338 116.8601 206° Southwest  Level Estimated
12:38AM 28.2541 116.8151 206° Southwest  Level Estimated
12:39AM 28.1744 116.7701 206° Southwest  Level Estimated
12:40AM 28.0947 116.7252 206° Southwest  Level Estimated
12:41AM 28.0149 116.6804 206° Southwest  Level Estimated
12:42AM 27.9351 116.6356 206° Southwest  Level Estimated
12:43AM 27.8554 116.5909 206° Southwest  Level Estimated
12:44AM 27.7756 116.5463 206° Southwest  Level Estimated
12:45AM 27.6957 116.5017 206° Southwest  Level Estimated
12:46AM 27.6159 116.4572 206° Southwest  Level Estimated
12:47AM 27.5361 116.4128 206° Southwest  Level Estimated
12:48AM 27.4562 116.3684 206° Southwest  Level Estimated
12:49AM 27.3763 116.3241 206° Southwest  Level Estimated
12:50AM 27.2964 116.2799 206° Southwest  Level Estimated
12:51AM 27.2166 116.2357 206° Southwest  Level Estimated
12:52AM 27.1366 116.1916 206° Southwest  Level Estimated
12:53AM 27.0567 116.1475 206° Southwest  Level Estimated
12:54AM 26.9768 116.1035 206° Southwest  Level Estimated
12:55AM 26.8968 116.0596 206° Southwest  Level Estimated
12:56AM 26.8169 116.0157 206° Southwest  Level Estimated
12:57AM 26.7369 115.9719 206° Southwest  Level Estimated
12:58AM 26.6569 115.9282 206° Southwest  Level Estimated
12:59AM 26.5769 115.8845 206° Southwest  Level Estimated
01:00AM 26.4969 115.8409 206° Southwest  Level Estimated
01:01AM 26.4168 115.7973 206° Southwest  Level Estimated
01:02AM 26.3368 115.7538 206° Southwest  Level Estimated
01:03AM 26.2567 115.7104 206° Southwest  Level Estimated
01:04AM 26.1766 115.6670 206° Southwest  Level Estimated
01:05AM 26.0966 115.6237 206° Southwest  Level Estimated
01:06AM 26.0165 115.5804 206° Southwest  Level Estimated
01:07AM 25.9363 115.5372 206° Southwest  Level Estimated
01:08AM 25.8562 115.4941 206° Southwest  Level Estimated
01:09AM 25.7761 115.4510 206° Southwest  Level Estimated
01:10AM 25.6959 115.4080 206° Southwest  Level Estimated
01:11AM 25.6158 115.3650 206° Southwest  Level Estimated
01:12AM 25.5356 115.3221 206° Southwest  Level Estimated
01:13AM 25.4554 115.2792 206° Southwest  Level Estimated
01:14AM 25.3752 115.2364 206° Southwest  Level Estimated
01:15AM 25.2950 115.1937 206° Southwest  Level Estimated
01:16AM 25.2148 115.1510 206° Southwest  Level Estimated
01:17AM 25.1346 115.1084 206° Southwest  Level Estimated
01:18AM 25.0543 115.0658 206° Southwest  Level Estimated
01:19AM 24.9740 115.0233 206° Southwest  Level Estimated
01:20AM 24.8938 114.9808 206° Southwest  Level Estimated
01:21AM 24.8135 114.9384 206° Southwest  Level Estimated
01:22AM 24.7332 114.8961 206° Southwest  Level Estimated
01:23AM 24.6529 114.8538 206° Southwest  Level Estimated
01:24AM 24.5725 114.8115 206° Southwest  Level Estimated
01:25AM 24.4922 114.7694 206° Southwest  Level Estimated
01:26AM 24.4119 114.7272 206° Southwest  Level Estimated
01:27AM 24.3315 114.6852 206° Southwest  Level Estimated
01:28AM 24.2512 114.6431 205° Southwest  Level Estimated
01:29AM 24.1708 114.6012 205° Southwest  Level Estimated
01:30AM 24.0904 114.5592 205° Southwest  Level Estimated
01:31AM 24.0100 114.5174 205° Southwest  Level Estimated
01:32AM 23.9296 114.4755 205° Southwest  Level Estimated
01:33AM 23.8491 114.4338 205° Southwest  Level Estimated
01:34AM 23.7687 114.3921 205° Southwest  Level Estimated
01:35AM 23.6883 114.3504 205° Southwest  Level Estimated
01:36AM 23.6078 114.3088 205° Southwest  Level Estimated
01:37AM 23.5273 114.2673 205° Southwest  Level Estimated
01:38AM 23.4469 114.2258 205° Southwest  Level Estimated
01:39AM 23.3664 114.1843 205° Southwest  Level Estimated
01:40AM 23.2859 114.1429 205° Southwest  Level Estimated
01:41AM 23.2054 114.1015 205° Southwest  Level Estimated
01:42AM 23.1248 114.0602 205° Southwest  Level Estimated
01:43AM 23.0443 114.0190 205° Southwest  Level Estimated
01:44AM 22.9638 113.9778 205° Southwest  Level Estimated
01:45AM 22.8832 113.9366 205° Southwest  Level Estimated
01:46AM 22.8026 113.8955 205° Southwest  Level Estimated
01:47AM 22.7220 113.8544 205° Southwest  Level Estimated
01:48AM 22.6415 113.8134 205° Southwest  Level Estimated
01:49AM 22.6395 113.8124 205° Southwest  Level Estimated
01:50AM 22.6395 113.8124 North  Level Estimated
01:51AM 22.6395 113.8124 North  Level Estimated
01:52AM 22.6395 113.8124 North  Level Estimated
01:53AM 22.6395 113.8124 North  Level Estimated
01:54AM 22.6395 113.8124 North  Level Estimated
01:55AM 22.6395 113.8124 North  Level Estimated
01:56AM 22.6395 113.8124 North  Level Estimated
01:57AM 22.6395 113.8124 North  Level Estimated
01:58AM 22.6395 113.8124 North  Level Estimated
01:59AM 22.6395 113.8124 North  Level Estimated
02:00AM 22.6395 113.8124 North  Level Estimated
02:01AM 22.6395 113.8124 North  Level Estimated
02:02AM 22.6395 113.8124 North  Level Estimated
02:03AM 22.6395 113.8124 North  Level Estimated
02:04AM 22.6395 113.8124 North  Level Estimated
02:05AM 22.6395 113.8124 North  Level Estimated